createdAt,value
2022-10-05T00:03:16.743Z,5.90
2022-10-05T00:08:15.972Z,7.72
2022-10-05T00:13:15.839Z,6.88
2022-10-05T00:18:15.584Z,7.93
2022-10-05T00:23:15.472Z,7.32
2022-10-05T00:28:18.074Z,6.25
2022-10-05T00:33:11.336Z,6.15
2022-10-05T00:38:04.568Z,11.38
2022-10-05T00:43:13.526Z,8.23
2022-10-05T00:48:20.050Z,7.80
2022-10-05T00:53:27.121Z,6.85
2022-10-05T00:58:33.875Z,5.43
2022-10-05T01:03:37.736Z,4.93
2022-10-05T01:08:41.693Z,5.25
2022-10-05T01:13:46.052Z,6.70
2022-10-05T01:18:51.349Z,6.72
2022-10-05T01:24:26.712Z,7.90
2022-10-05T01:29:24.804Z,7.80
2022-10-05T01:34:27.986Z,5.47
2022-10-05T01:39:28.733Z,6.15
2022-10-05T01:44:31.546Z,5.22
2022-10-05T01:49:38.797Z,5.55
2022-10-05T01:54:45.552Z,5.65
2022-10-05T01:59:58.734Z,6.85
2022-10-05T02:05:02.068Z,6.93
2022-10-05T02:10:01.463Z,5.72
2022-10-05T02:15:01.515Z,5.28
2022-10-05T02:20:01.239Z,7.45
2022-10-05T02:24:59.253Z,5.20
2022-10-05T02:29:58.050Z,4.90
2022-10-05T02:34:52.434Z,6.82
2022-10-05T02:40:08.632Z,7.45
2022-10-05T02:45:15.425Z,5.07
2022-10-05T02:50:17.144Z,6.32
2022-10-05T02:55:18.085Z,7.63
2022-10-05T03:00:17.883Z,7.63
2022-10-05T03:05:21.487Z,17.35
2022-10-05T03:10:25.835Z,10.85
2022-10-05T03:15:56.374Z,6.72
2022-10-05T03:20:58.583Z,7.05
2022-10-05T03:26:10.519Z,9.25
2022-10-05T03:31:11.153Z,6.95
2022-10-05T03:36:13.461Z,6.47
2022-10-05T03:41:14.099Z,7.82
2022-10-05T03:46:13.915Z,7.45
2022-10-05T03:51:13.555Z,7.65
2022-10-05T03:56:14.888Z,10.07
2022-10-05T04:01:14.391Z,6.95
2022-10-05T04:06:14.811Z,10.52
2022-10-05T04:11:23.747Z,10.73
2022-10-05T04:16:23.528Z,11.70
2022-10-05T04:21:24.509Z,10.63
2022-10-05T04:26:26.247Z,9.07
2022-10-05T04:31:41.594Z,10.82
2022-10-05T04:36:42.204Z,13.40
2022-10-05T04:41:49.785Z,12.00
2022-10-05T04:47:03.497Z,10.38
2022-10-05T04:52:06.935Z,13.52
2022-10-05T04:57:03.503Z,12.60
2022-10-05T05:02:06.871Z,7.80
2022-10-05T05:07:13.429Z,8.68
2022-10-05T05:12:20.713Z,8.05
2022-10-05T05:17:32.326Z,9.52
2022-10-05T05:22:34.908Z,11.02
2022-10-05T05:27:42.592Z,10.25
2022-10-05T05:32:52.634Z,17.65
2022-10-05T05:37:53.603Z,13.40
2022-10-05T05:42:56.791Z,14.88
2022-10-05T05:47:57.051Z,14.43
2022-10-05T05:52:56.671Z,12.82
2022-10-05T05:57:56.577Z,11.55
2022-10-05T06:02:58.394Z,10.85
2022-10-05T06:07:55.203Z,18.73
2022-10-05T06:12:54.966Z,20.52
2022-10-05T06:17:54.819Z,10.75
2022-10-05T06:22:52.646Z,10.52
2022-10-05T06:28:03.427Z,6.35
2022-10-05T06:33:12.938Z,8.13
2022-10-05T06:38:26.182Z,11.27
2022-10-05T06:43:49.579Z,8.80
2022-10-05T06:49:19.607Z,10.48
2022-10-05T06:54:43.965Z,7.80
2022-10-05T06:59:50.592Z,8.13
2022-10-05T07:04:58.619Z,6.75
2022-10-05T07:10:07.337Z,9.88
2022-10-05T07:15:16.687Z,10.10
2022-10-05T07:20:17.775Z,9.48
2022-10-05T07:25:18.151Z,8.55
2022-10-05T07:30:17.338Z,9.52
2022-10-05T07:35:33.110Z,8.77
2022-10-05T07:40:33.106Z,10.15
2022-10-05T07:45:31.003Z,7.13
2022-10-05T07:50:31.929Z,7.10
2022-10-05T07:55:33.950Z,8.75
2022-10-05T08:00:43.291Z,6.60
2022-10-05T08:05:42.818Z,7.13
2022-10-05T08:10:46.416Z,7.50
2022-10-05T08:15:44.190Z,5.80
2022-10-05T08:20:45.294Z,5.82
2022-10-05T08:25:50.840Z,8.68
2022-10-05T08:30:59.088Z,5.57
2022-10-05T08:36:03.017Z,7.25
2022-10-05T08:41:28.277Z,8.40
2022-10-05T08:46:39.447Z,7.00
2022-10-05T08:52:14.934Z,6.60
2022-10-05T08:57:53.198Z,6.85
2022-10-05T09:03:13.358Z,4.55
2022-10-05T09:08:32.001Z,6.88
2022-10-05T09:13:54.845Z,5.35
2022-10-05T09:19:09.061Z,5.60
2022-10-05T09:24:22.028Z,7.30
2022-10-05T09:30:03.692Z,5.13
2022-10-05T09:35:23.234Z,8.02
2022-10-05T09:41:06.345Z,7.30
2022-10-05T09:46:40.546Z,6.75
2022-10-05T09:52:08.199Z,7.55
2022-10-05T09:57:23.516Z,5.45
2022-10-05T10:02:30.549Z,4.82
2022-10-05T10:07:43.226Z,5.82
2022-10-05T10:12:59.675Z,5.53
2022-10-05T10:18:24.127Z,7.63
2022-10-05T10:23:49.927Z,5.68
2022-10-05T10:29:12.171Z,4.80
2022-10-05T10:34:52.987Z,5.05
2022-10-05T10:40:10.481Z,6.07
2022-10-05T10:45:20.778Z,6.57
2022-10-05T10:55:35.263Z,8.35
2022-10-05T11:00:48.852Z,4.45
2022-10-05T11:06:41.047Z,6.07
2022-10-05T11:12:09.965Z,5.35
2022-10-05T11:17:29.557Z,5.07
2022-10-05T11:22:40.260Z,4.93
2022-10-05T11:28:02.517Z,5.47
2022-10-05T11:33:52.114Z,5.80
2022-10-05T11:39:09.900Z,3.90
2022-10-05T11:44:33.663Z,5.70
2022-10-05T11:49:37.582Z,4.68
2022-10-05T11:55:16.181Z,4.18
2022-10-05T12:00:19.150Z,3.00
2022-10-05T12:05:22.387Z,3.97
2022-10-05T12:10:29.211Z,4.60
2022-10-05T12:15:28.675Z,5.00
2022-10-05T12:20:29.863Z,3.25
2022-10-05T12:25:28.422Z,4.75
2022-10-05T12:30:31.556Z,3.00
2022-10-05T12:35:47.336Z,4.05
2022-10-05T12:40:46.506Z,3.72
2022-10-05T12:45:55.287Z,7.80
2022-10-05T12:50:51.746Z,4.78
2022-10-05T12:55:54.617Z,4.65
2022-10-05T13:00:57.430Z,5.13
2022-10-05T13:06:02.810Z,2.88
2022-10-05T13:11:04.823Z,2.75
2022-10-05T13:16:04.806Z,3.20
2022-10-05T13:21:05.382Z,4.10
2022-10-05T13:26:08.811Z,4.20
2022-10-05T13:31:13.218Z,4.45
2022-10-05T13:36:16.025Z,4.63
2022-10-05T13:41:18.949Z,4.18
2022-10-05T13:46:20.413Z,3.65
2022-10-05T13:51:22.673Z,3.35
2022-10-05T13:56:22.718Z,3.45
2022-10-05T14:01:23.650Z,3.88
2022-10-05T14:06:31.169Z,2.40
2022-10-05T14:11:32.470Z,2.92
2022-10-05T14:16:26.604Z,4.28
2022-10-05T14:21:23.607Z,3.85
2022-10-05T14:26:32.696Z,4.10
2022-10-05T14:31:31.653Z,3.78
2022-10-05T14:36:40.381Z,4.07
2022-10-05T14:41:37.678Z,2.50
2022-10-05T14:46:33.274Z,2.30
2022-10-05T14:51:31.966Z,3.03
2022-10-05T14:56:47.540Z,5.75
2022-10-05T15:01:46.162Z,4.93
2022-10-05T15:06:42.747Z,5.38
2022-10-05T15:11:49.641Z,2.75
2022-10-05T15:16:43.532Z,4.50
2022-10-05T15:41:00.414Z,6.53
2022-10-05T15:46:08.844Z,7.10
2022-10-05T15:56:17.209Z,7.68
2022-10-05T16:01:49.864Z,6.18
2022-10-05T16:07:17.176Z,7.90
2022-10-05T16:12:36.777Z,16.88
2022-10-05T16:17:42.322Z,13.90
2022-10-05T16:22:43.837Z,8.63
2022-10-05T16:28:02.962Z,9.45
2022-10-05T16:33:19.715Z,10.20
2022-10-05T16:38:30.274Z,9.75
2022-10-05T16:48:41.737Z,9.02
2022-10-05T16:53:40.099Z,8.30
2022-10-05T16:58:49.048Z,7.72
2022-10-05T17:03:59.219Z,9.13
2022-10-05T17:09:27.456Z,14.57
2022-10-05T17:14:35.297Z,7.18
2022-10-05T17:19:45.879Z,9.55
2022-10-05T17:24:53.657Z,10.93
2022-10-05T17:29:51.974Z,9.15
2022-10-05T17:35:20.407Z,8.57
2022-10-05T17:40:32.881Z,9.93
2022-10-05T17:46:03.378Z,9.38
2022-10-05T17:51:27.335Z,8.20
2022-10-05T17:56:21.069Z,11.50
2022-10-05T18:01:30.447Z,7.95
2022-10-05T18:06:35.524Z,8.17
2022-10-05T18:11:43.659Z,13.30
2022-10-05T18:17:00.648Z,15.98
2022-10-05T18:22:03.436Z,15.55
2022-10-05T18:27:08.331Z,14.98
2022-10-05T18:32:09.532Z,16.65
2022-10-05T18:37:22.495Z,15.00
2022-10-05T18:42:25.003Z,15.00
2022-10-05T18:47:30.457Z,16.70
2022-10-05T18:52:37.579Z,19.23
2022-10-05T18:58:00.033Z,17.27
2022-10-05T19:02:58.853Z,14.25
2022-10-05T19:08:01.381Z,16.15
2022-10-05T19:13:17.736Z,15.23
2022-10-05T19:18:54.647Z,13.52
2022-10-05T19:24:15.374Z,15.25
2022-10-05T19:29:22.696Z,18.70
2022-10-05T19:34:39.660Z,16.67
2022-10-05T19:39:40.377Z,12.52
2022-10-05T19:44:47.306Z,11.43
2022-10-05T19:49:59.450Z,12.80
2022-10-05T19:55:13.951Z,11.90
2022-10-05T20:00:08.811Z,11.43
2022-10-05T20:05:09.186Z,13.52
2022-10-05T20:15:37.432Z,13.85
2022-10-05T20:20:42.330Z,16.17
2022-10-05T20:25:40.361Z,10.60
2022-10-05T20:30:34.305Z,10.52
2022-10-05T20:35:30.903Z,10.07
2022-10-05T20:40:25.558Z,12.30
2022-10-05T20:45:18.729Z,7.85
2022-10-05T20:50:12.427Z,9.85
2022-10-05T20:55:06.484Z,8.88
2022-10-05T21:00:01.113Z,8.05
2022-10-05T21:04:54.297Z,9.57
2022-10-05T21:09:47.670Z,10.52
2022-10-05T21:14:41.440Z,7.78
2022-10-05T21:19:40.474Z,10.10
2022-10-05T21:24:34.116Z,9.10
2022-10-05T21:29:27.239Z,10.85
2022-10-05T21:34:20.447Z,7.40
2022-10-05T21:39:14.932Z,6.85
2022-10-05T21:44:08.094Z,5.22
2022-10-05T21:49:01.293Z,7.30
2022-10-05T21:53:58.278Z,5.03
2022-10-05T21:58:53.385Z,5.30
2022-10-05T22:03:46.770Z,4.55
2022-10-05T22:08:40.208Z,5.53
2022-10-05T22:13:43.178Z,6.00
2022-10-05T22:18:37.847Z,5.15
2022-10-05T22:23:31.194Z,5.35
2022-10-05T22:28:24.521Z,5.47
2022-10-05T22:33:19.123Z,4.88
2022-10-05T22:38:13.936Z,4.90
2022-10-05T22:43:10.193Z,5.55
2022-10-05T22:48:03.832Z,5.30
2022-10-05T22:52:57.105Z,5.43
2022-10-05T22:57:51.919Z,4.53
2022-10-05T23:02:46.097Z,5.32
2022-10-05T23:07:40.158Z,8.63
2022-10-05T23:12:33.994Z,6.30
2022-10-05T23:17:28.803Z,5.47
2022-10-05T23:22:22.112Z,4.30
2022-10-05T23:27:15.493Z,5.03
2022-10-05T23:32:09.545Z,5.65
2022-10-05T23:37:04.072Z,5.72
2022-10-05T23:41:57.333Z,5.40
2022-10-05T23:46:50.593Z,4.65
2022-10-05T23:51:44.986Z,4.03
2022-10-05T23:56:39.505Z,4.72
